sensor_id;sensor_type;location;lat;lon;timestamp;pressure;altitude;pressure_sealevel;temperature;humidity
12536;BME280;6334;48.696;2.114;2023-06-26T00:01:09;100055.32;;;23.05;55.21
12536;BME280;6334;48.696;2.114;2023-06-26T00:03:40;100060.02;;;22.84;56.40
12536;BME280;6334;48.696;2.114;2023-06-26T00:06:11;100055.84;;;22.52;57.02
12536;BME280;6334;48.696;2.114;2023-06-26T00:08:41;100052.42;;;22.54;57.21
12536;BME280;6334;48.696;2.114;2023-06-26T00:11:12;100056.58;;;22.90;55.77
12536;BME280;6334;48.696;2.114;2023-06-26T00:13:42;100052.84;;;22.50;56.91
12536;BME280;6334;48.696;2.114;2023-06-26T00:16:13;100061.72;;;22.61;57.60
12536;BME280;6334;48.696;2.114;2023-06-26T00:18:43;100065.00;;;22.72;56.27
12536;BME280;6334;48.696;2.114;2023-06-26T00:21:14;100065.52;;;22.57;57.90
12536;BME280;6334;48.696;2.114;2023-06-26T00:23:43;100068.37;;;22.46;57.74
12536;BME280;6334;48.696;2.114;2023-06-26T00:26:14;100067.09;;;22.63;56.48
12536;BME280;6334;48.696;2.114;2023-06-26T00:28:44;100070.89;;;22.60;58.02
12536;BME280;6334;48.696;2.114;2023-06-26T00:31:15;100076.28;;;22.22;57.72
12536;BME280;6334;48.696;2.114;2023-06-26T00:33:45;100074.50;;;22.57;56.81
12536;BME280;6334;48.696;2.114;2023-06-26T00:36:15;100079.66;;;22.97;55.73
12536;BME280;6334;48.696;2.114;2023-06-26T00:38:46;100078.01;;;23.04;55.95
12536;BME280;6334;48.696;2.114;2023-06-26T00:41:16;100083.83;;;22.80;55.89
12536;BME280;6334;48.696;2.114;2023-06-26T00:43:49;100087.93;;;22.40;56.45
12536;BME280;6334;48.696;2.114;2023-06-26T00:46:19;100087.92;;;22.55;55.48
12536;BME280;6334;48.696;2.114;2023-06-26T00:48:49;100084.78;;;22.45;55.64
12536;BME280;6334;48.696;2.114;2023-06-26T00:51:20;100084.58;;;22.11;56.97
12536;BME280;6334;48.696;2.114;2023-06-26T00:53:50;100079.14;;;21.99;55.67
12536;BME280;6334;48.696;2.114;2023-06-26T00:56:21;100080.62;;;22.25;54.75
12536;BME280;6334;48.696;2.114;2023-06-26T00:58:51;100088.59;;;22.00;55.74
12536;BME280;6334;48.696;2.114;2023-06-26T01:01:22;100086.19;;;22.36;54.69
12536;BME280;6334;48.696;2.114;2023-06-26T01:03:53;100093.69;;;21.47;56.64
12536;BME280;6334;48.696;2.114;2023-06-26T01:06:23;100091.92;;;22.05;55.59
12536;BME280;6334;48.696;2.114;2023-06-26T01:08:53;100096.77;;;22.05;55.11
12536;BME280;6334;48.696;2.114;2023-06-26T01:11:23;100099.95;;;21.93;55.19
12536;BME280;6334;48.696;2.114;2023-06-26T01:13:52;100099.09;;;21.82;55.31
12536;BME280;6334;48.696;2.114;2023-06-26T01:16:26;100093.77;;;22.04;54.89
12536;BME280;6334;48.696;2.114;2023-06-26T01:18:55;100101.97;;;22.03;54.70
12536;BME280;6334;48.696;2.114;2023-06-26T01:21:26;100110.67;;;21.88;55.80
12536;BME280;6334;48.696;2.114;2023-06-26T01:24:07;100112.22;;;21.86;55.93
12536;BME280;6334;48.696;2.114;2023-06-26T01:26:34;100116.20;;;22.33;54.68
12536;BME280;6334;48.696;2.114;2023-06-26T01:29:04;100114.25;;;21.78;56.53
12536;BME280;6334;48.696;2.114;2023-06-26T01:31:34;100122.53;;;21.61;56.74
12536;BME280;6334;48.696;2.114;2023-06-26T01:34:03;100124.45;;;21.70;56.87
12536;BME280;6334;48.696;2.114;2023-06-26T01:36:34;100120.06;;;21.29;58.70
12536;BME280;6334;48.696;2.114;2023-06-26T01:39:03;100134.75;;;21.52;56.96
12536;BME280;6334;48.696;2.114;2023-06-26T01:41:34;100136.48;;;21.80;56.28
12536;BME280;6334;48.696;2.114;2023-06-26T01:44:11;100144.61;;;21.47;57.25
12536;BME280;6334;48.696;2.114;2023-06-26T01:46:49;100145.82;;;22.04;55.06
12536;BME280;6334;48.696;2.114;2023-06-26T01:49:30;100145.36;;;21.38;56.98
12536;BME280;6334;48.696;2.114;2023-06-26T01:52:07;100142.42;;;21.55;55.76
12536;BME280;6334;48.696;2.114;2023-06-26T01:54:37;100151.08;;;21.21;57.03
12536;BME280;6334;48.696;2.114;2023-06-26T01:57:07;100152.13;;;21.18;56.52
12536;BME280;6334;48.696;2.114;2023-06-26T01:59:37;100153.38;;;21.51;55.33
12536;BME280;6334;48.696;2.114;2023-06-26T02:02:07;100159.91;;;21.16;56.13
12536;BME280;6334;48.696;2.114;2023-06-26T02:04:36;100166.17;;;20.97;57.05
12536;BME280;6334;48.696;2.114;2023-06-26T02:07:07;100167.51;;;21.02;56.71
12536;BME280;6334;48.696;2.114;2023-06-26T02:09:37;100165.14;;;21.15;56.23
12536;BME280;6334;48.696;2.114;2023-06-26T02:12:08;100170.59;;;21.07;55.96
12536;BME280;6334;48.696;2.114;2023-06-26T02:14:38;100173.02;;;20.79;57.08
12536;BME280;6334;48.696;2.114;2023-06-26T02:17:10;100179.39;;;20.93;56.55
12536;BME280;6334;48.696;2.114;2023-06-26T02:19:40;100184.20;;;20.97;56.78
12536;BME280;6334;48.696;2.114;2023-06-26T02:22:11;100188.55;;;20.94;56.72
12536;BME280;6334;48.696;2.114;2023-06-26T02:24:42;100184.81;;;20.81;57.37
12536;BME280;6334;48.696;2.114;2023-06-26T02:27:12;100183.40;;;20.71;56.91
12536;BME280;6334;48.696;2.114;2023-06-26T02:29:42;100183.89;;;21.12;56.35
12536;BME280;6334;48.696;2.114;2023-06-26T02:32:12;100186.18;;;21.15;56.10
12536;BME280;6334;48.696;2.114;2023-06-26T02:34:41;100193.58;;;21.61;54.87
12536;BME280;6334;48.696;2.114;2023-06-26T02:37:12;100192.98;;;21.22;56.16
12536;BME280;6334;48.696;2.114;2023-06-26T02:39:41;100198.77;;;21.33;55.60
12536;BME280;6334;48.696;2.114;2023-06-26T02:42:11;100202.66;;;21.60;54.70
12536;BME280;6334;48.696;2.114;2023-06-26T02:44:41;100203.11;;;21.64;54.51
12536;BME280;6334;48.696;2.114;2023-06-26T02:47:12;100207.64;;;20.72;57.59
12536;BME280;6334;48.696;2.114;2023-06-26T02:49:41;100213.03;;;20.87;56.78
12536;BME280;6334;48.696;2.114;2023-06-26T02:52:12;100213.28;;;21.29;55.63
12536;BME280;6334;48.696;2.114;2023-06-26T02:54:42;100213.82;;;20.77;57.58
12536;BME280;6334;48.696;2.114;2023-06-26T02:57:12;100216.23;;;21.35;55.41
12536;BME280;6334;48.696;2.114;2023-06-26T02:59:44;100218.92;;;21.26;56.16
12536;BME280;6334;48.696;2.114;2023-06-26T03:02:14;100220.48;;;20.79;57.48
12536;BME280;6334;48.696;2.114;2023-06-26T03:04:45;100224.68;;;20.76;58.13
12536;BME280;6334;48.696;2.114;2023-06-26T03:07:15;100228.36;;;20.98;56.52
12536;BME280;6334;48.696;2.114;2023-06-26T03:09:46;100225.34;;;20.80;57.80
12536;BME280;6334;48.696;2.114;2023-06-26T03:12:16;100228.38;;;20.44;58.60
12536;BME280;6334;48.696;2.114;2023-06-26T03:14:47;100233.63;;;20.57;58.39
12536;BME280;6334;48.696;2.114;2023-06-26T03:17:17;100230.70;;;20.17;59.05
12536;BME280;6334;48.696;2.114;2023-06-26T03:19:47;100228.38;;;20.18;59.46
12536;BME280;6334;48.696;2.114;2023-06-26T03:22:18;100232.83;;;20.22;58.85
12536;BME280;6334;48.696;2.114;2023-06-26T03:24:48;100229.31;;;20.21;59.32
12536;BME280;6334;48.696;2.114;2023-06-26T03:27:19;100231.20;;;20.35;59.34
12536;BME280;6334;48.696;2.114;2023-06-26T03:29:49;100230.90;;;20.51;58.43
12536;BME280;6334;48.696;2.114;2023-06-26T03:32:19;100231.48;;;19.99;60.27
12536;BME280;6334;48.696;2.114;2023-06-26T03:34:49;100234.28;;;20.24;59.96
12536;BME280;6334;48.696;2.114;2023-06-26T03:37:20;100234.56;;;20.40;59.39
12536;BME280;6334;48.696;2.114;2023-06-26T03:39:50;100237.16;;;20.86;57.23
12536;BME280;6334;48.696;2.114;2023-06-26T03:42:21;100242.39;;;20.49;58.19
12536;BME280;6334;48.696;2.114;2023-06-26T03:44:51;100249.03;;;20.43;58.36
12536;BME280;6334;48.696;2.114;2023-06-26T03:47:21;100251.59;;;19.75;60.51
12536;BME280;6334;48.696;2.114;2023-06-26T03:49:52;100248.91;;;19.50;61.73
12536;BME280;6334;48.696;2.114;2023-06-26T03:52:23;100259.16;;;20.08;59.67
12536;BME280;6334;48.696;2.114;2023-06-26T03:54:53;100265.30;;;19.73;60.54
12536;BME280;6334;48.696;2.114;2023-06-26T03:57:25;100269.93;;;19.35;62.47
12536;BME280;6334;48.696;2.114;2023-06-26T03:59:56;100270.97;;;19.53;61.24
12536;BME280;6334;48.696;2.114;2023-06-26T04:02:26;100276.41;;;19.36;62.10
12536;BME280;6334;48.696;2.114;2023-06-26T04:04:56;100280.00;;;19.48;61.89
12536;BME280;6334;48.696;2.114;2023-06-26T04:07:26;100286.34;;;19.93;60.29
12536;BME280;6334;48.696;2.114;2023-06-26T04:09:59;100288.19;;;19.44;61.81
12536;BME280;6334;48.696;2.114;2023-06-26T04:12:29;100282.13;;;19.51;61.77
12536;BME280;6334;48.696;2.114;2023-06-26T04:15:00;100281.86;;;19.82;60.71
12536;BME280;6334;48.696;2.114;2023-06-26T04:17:30;100284.98;;;19.74;60.85
12536;BME280;6334;48.696;2.114;2023-06-26T04:20:01;100287.91;;;19.10;63.13
12536;BME280;6334;48.696;2.114;2023-06-26T04:22:34;100288.02;;;19.32;62.20
12536;BME280;6334;48.696;2.114;2023-06-26T04:25:04;100291.48;;;18.78;64.13
12536;BME280;6334;48.696;2.114;2023-06-26T04:27:35;100292.58;;;19.27;61.98
12536;BME280;6334;48.696;2.114;2023-06-26T04:30:06;100299.86;;;19.04;63.73
12536;BME280;6334;48.696;2.114;2023-06-26T04:32:36;100300.63;;;19.32;62.29
12536;BME280;6334;48.696;2.114;2023-06-26T04:35:08;100297.59;;;19.23;62.45
12536;BME280;6334;48.696;2.114;2023-06-26T04:37:38;100303.73;;;19.22;62.78
12536;BME280;6334;48.696;2.114;2023-06-26T04:40:09;100297.85;;;18.94;63.66
12536;BME280;6334;48.696;2.114;2023-06-26T04:42:39;100297.81;;;19.05;63.62
12536;BME280;6334;48.696;2.114;2023-06-26T04:45:10;100298.23;;;18.68;64.72
12536;BME280;6334;48.696;2.114;2023-06-26T04:47:40;100293.38;;;19.10;63.13
12536;BME280;6334;48.696;2.114;2023-06-26T04:50:10;100299.05;;;19.45;62.38
12536;BME280;6334;48.696;2.114;2023-06-26T04:52:40;100297.56;;;19.34;61.87
12536;BME280;6334;48.696;2.114;2023-06-26T04:55:11;100298.16;;;19.28;62.90
12536;BME280;6334;48.696;2.114;2023-06-26T04:57:41;100297.81;;;19.13;62.60
12536;BME280;6334;48.696;2.114;2023-06-26T05:00:12;100300.70;;;19.79;61.59
12536;BME280;6334;48.696;2.114;2023-06-26T05:02:42;100299.13;;;19.56;62.01
12536;BME280;6334;48.696;2.114;2023-06-26T05:05:13;100309.81;;;19.24;62.71
12536;BME280;6334;48.696;2.114;2023-06-26T05:07:43;100308.63;;;19.76;61.04
12536;BME280;6334;48.696;2.114;2023-06-26T05:10:14;100309.88;;;20.32;59.43
12536;BME280;6334;48.696;2.114;2023-06-26T05:12:44;100316.06;;;19.76;60.94
12536;BME280;6334;48.696;2.114;2023-06-26T05:15:15;100319.66;;;19.97;61.05
12536;BME280;6334;48.696;2.114;2023-06-26T05:17:45;100321.56;;;19.06;63.38
12536;BME280;6334;48.696;2.114;2023-06-26T05:20:16;100322.30;;;19.72;61.50
12536;BME280;6334;48.696;2.114;2023-06-26T05:22:46;100320.50;;;19.67;61.48
12536;BME280;6334;48.696;2.114;2023-06-26T05:25:18;100321.73;;;20.11;60.00
12536;BME280;6334;48.696;2.114;2023-06-26T05:27:48;100328.16;;;20.13;60.58
12536;BME280;6334;48.696;2.114;2023-06-26T05:30:19;100326.55;;;19.17;63.66
12536;BME280;6334;48.696;2.114;2023-06-26T05:32:49;100330.28;;;19.63;61.58
12536;BME280;6334;48.696;2.114;2023-06-26T05:35:20;100331.14;;;19.73;60.91
12536;BME280;6334;48.696;2.114;2023-06-26T05:37:51;100334.39;;;19.85;61.47
12536;BME280;6334;48.696;2.114;2023-06-26T05:40:22;100342.52;;;20.22;59.83
12536;BME280;6334;48.696;2.114;2023-06-26T05:42:53;100337.23;;;19.62;62.44
12536;BME280;6334;48.696;2.114;2023-06-26T05:45:22;100337.31;;;19.94;61.09
12536;BME280;6334;48.696;2.114;2023-06-26T05:47:53;100339.07;;;19.81;61.86
12536;BME280;6334;48.696;2.114;2023-06-26T05:50:23;100346.07;;;21.09;61.05
12536;BME280;6334;48.696;2.114;2023-06-26T05:52:54;100338.88;;;20.50;58.97
12536;BME280;6334;48.696;2.114;2023-06-26T05:55:23;100347.20;;;20.09;60.37
12536;BME280;6334;48.696;2.114;2023-06-26T05:57:53;100351.39;;;20.55;58.77
12536;BME280;6334;48.696;2.114;2023-06-26T06:00:24;100344.72;;;19.99;60.32
12536;BME280;6334;48.696;2.114;2023-06-26T06:02:53;100354.27;;;20.12;60.07
12536;BME280;6334;48.696;2.114;2023-06-26T06:05:23;100353.34;;;20.37;59.44
12536;BME280;6334;48.696;2.114;2023-06-26T06:07:54;100359.98;;;20.38;59.15
12536;BME280;6334;48.696;2.114;2023-06-26T06:10:23;100360.94;;;20.17;59.87
12536;BME280;6334;48.696;2.114;2023-06-26T06:12:53;100353.75;;;20.37;59.39
12536;BME280;6334;48.696;2.114;2023-06-26T06:15:23;100350.84;;;20.60;59.02
12536;BME280;6334;48.696;2.114;2023-06-26T06:18:03;100349.25;;;20.93;57.37
12536;BME280;6334;48.696;2.114;2023-06-26T06:20:34;100355.92;;;20.51;58.72
12536;BME280;6334;48.696;2.114;2023-06-26T06:23:03;100363.06;;;21.66;55.36
12536;BME280;6334;48.696;2.114;2023-06-26T06:25:33;100364.83;;;21.20;56.51
12536;BME280;6334;48.696;2.114;2023-06-26T06:28:04;100363.83;;;21.53;56.55
12536;BME280;6334;48.696;2.114;2023-06-26T06:30:33;100364.44;;;20.48;58.74
12536;BME280;6334;48.696;2.114;2023-06-26T06:33:04;100376.30;;;21.07;57.27
12536;BME280;6334;48.696;2.114;2023-06-26T06:35:34;100374.20;;;20.81;57.77
12536;BME280;6334;48.696;2.114;2023-06-26T06:38:05;100384.93;;;21.43;56.08
12536;BME280;6334;48.696;2.114;2023-06-26T06:40:34;100387.95;;;20.97;57.76
12536;BME280;6334;48.696;2.114;2023-06-26T06:43:05;100392.38;;;21.32;55.87
12536;BME280;6334;48.696;2.114;2023-06-26T06:45:35;100382.64;;;22.05;54.18
12536;BME280;6334;48.696;2.114;2023-06-26T06:48:06;100382.55;;;21.22;56.51
12536;BME280;6334;48.696;2.114;2023-06-26T06:50:36;100395.08;;;21.78;55.66
12536;BME280;6334;48.696;2.114;2023-06-26T06:53:07;100397.50;;;21.39;55.86
12536;BME280;6334;48.696;2.114;2023-06-26T06:55:36;100401.98;;;21.82;56.34
12536;BME280;6334;48.696;2.114;2023-06-26T06:58:05;100408.48;;;22.14;53.92
12536;BME280;6334;48.696;2.114;2023-06-26T07:00:35;100405.92;;;22.18;53.13
12536;BME280;6334;48.696;2.114;2023-06-26T07:03:05;100397.58;;;21.81;53.66
12536;BME280;6334;48.696;2.114;2023-06-26T07:05:36;100397.23;;;22.58;51.93
12536;BME280;6334;48.696;2.114;2023-06-26T07:08:06;100394.61;;;22.50;52.91
12536;BME280;6334;48.696;2.114;2023-06-26T07:10:37;100398.52;;;22.08;53.69
12536;BME280;6334;48.696;2.114;2023-06-26T07:13:08;100405.16;;;22.36;51.77
12536;BME280;6334;48.696;2.114;2023-06-26T07:15:38;100405.63;;;21.38;54.01
12536;BME280;6334;48.696;2.114;2023-06-26T07:18:08;100407.00;;;21.46;53.88
12536;BME280;6334;48.696;2.114;2023-06-26T07:20:38;100407.24;;;22.12;52.10
12536;BME280;6334;48.696;2.114;2023-06-26T07:23:08;100404.92;;;22.54;51.22
12536;BME280;6334;48.696;2.114;2023-06-26T07:25:41;100407.31;;;22.69;51.59
12536;BME280;6334;48.696;2.114;2023-06-26T07:28:11;100409.59;;;22.26;52.21
12536;BME280;6334;48.696;2.114;2023-06-26T07:30:40;100412.15;;;21.55;53.89
12536;BME280;6334;48.696;2.114;2023-06-26T07:33:11;100414.47;;;21.77;52.95
12536;BME280;6334;48.696;2.114;2023-06-26T07:35:40;100414.15;;;21.16;55.08
12536;BME280;6334;48.696;2.114;2023-06-26T07:38:10;100419.68;;;22.13;52.89
12536;BME280;6334;48.696;2.114;2023-06-26T07:40:40;100421.33;;;22.20;52.34
12536;BME280;6334;48.696;2.114;2023-06-26T07:43:11;100426.92;;;22.36;51.11
12536;BME280;6334;48.696;2.114;2023-06-26T07:45:41;100424.95;;;22.70;50.19
12536;BME280;6334;48.696;2.114;2023-06-26T07:48:11;100423.53;;;21.89;51.35
12536;BME280;6334;48.696;2.114;2023-06-26T07:50:42;100425.05;;;22.94;49.87
12536;BME280;6334;48.696;2.114;2023-06-26T07:53:11;100425.20;;;22.36;51.26
12536;BME280;6334;48.696;2.114;2023-06-26T07:55:41;100428.70;;;23.21;47.86
12536;BME280;6334;48.696;2.114;2023-06-26T07:58:11;100439.07;;;23.26;49.72
12536;BME280;6334;48.696;2.114;2023-06-26T08:00:42;100444.14;;;23.47;49.32
12536;BME280;6334;48.696;2.114;2023-06-26T08:03:12;100438.52;;;23.55;47.91
12536;BME280;6334;48.696;2.114;2023-06-26T08:05:43;100439.55;;;24.02;48.08
12536;BME280;6334;48.696;2.114;2023-06-26T08:08:12;100447.44;;;22.47;50.20
12536;BME280;6334;48.696;2.114;2023-06-26T08:10:43;100440.87;;;21.90;50.86
12536;BME280;6334;48.696;2.114;2023-06-26T08:13:14;100445.11;;;21.52;53.48
12536;BME280;6334;48.696;2.114;2023-06-26T08:15:43;100447.63;;;22.85;50.24
12536;BME280;6334;48.696;2.114;2023-06-26T08:18:14;100449.28;;;24.18;47.64
12536;BME280;6334;48.696;2.114;2023-06-26T08:20:44;100444.37;;;24.24;45.80
12536;BME280;6334;48.696;2.114;2023-06-26T08:23:14;100453.82;;;23.51;47.58
12536;BME280;6334;48.696;2.114;2023-06-26T08:25:44;100455.02;;;22.64;50.54
12536;BME280;6334;48.696;2.114;2023-06-26T08:28:14;100450.92;;;22.93;48.72
12536;BME280;6334;48.696;2.114;2023-06-26T08:30:43;100452.02;;;23.61;47.58
12536;BME280;6334;48.696;2.114;2023-06-26T08:33:15;100452.33;;;23.21;46.64
12536;BME280;6334;48.696;2.114;2023-06-26T08:35:45;100449.77;;;23.23;46.97
12536;BME280;6334;48.696;2.114;2023-06-26T08:38:16;100441.01;;;24.19;45.57
12536;BME280;6334;48.696;2.114;2023-06-26T08:40:47;100441.48;;;24.06;43.78
12536;BME280;6334;48.696;2.114;2023-06-26T08:43:17;100442.78;;;23.72;44.39
12536;BME280;6334;48.696;2.114;2023-06-26T08:45:48;100438.59;;;23.94;44.52
12536;BME280;6334;48.696;2.114;2023-06-26T08:48:23;100440.73;;;23.94;44.07
12536;BME280;6334;48.696;2.114;2023-06-26T08:50:53;100447.45;;;23.95;44.29
12536;BME280;6334;48.696;2.114;2023-06-26T08:55:54;100439.67;;;23.62;45.91
12536;BME280;6334;48.696;2.114;2023-06-26T08:58:23;100449.78;;;23.47;46.46
12536;BME280;6334;48.696;2.114;2023-06-26T09:00:54;100438.54;;;23.79;44.75
12536;BME280;6334;48.696;2.114;2023-06-26T09:03:25;100441.13;;;23.53;46.20
12536;BME280;6334;48.696;2.114;2023-06-26T09:05:55;100447.16;;;23.48;45.31
12536;BME280;6334;48.696;2.114;2023-06-26T09:08:25;100443.63;;;23.85;43.51
12536;BME280;6334;48.696;2.114;2023-06-26T09:10:55;100452.56;;;23.69;44.02
12536;BME280;6334;48.696;2.114;2023-06-26T09:13:25;100442.89;;;24.28;43.29
12536;BME280;6334;48.696;2.114;2023-06-26T09:15:55;100439.83;;;24.08;43.59
12536;BME280;6334;48.696;2.114;2023-06-26T09:18:25;100442.28;;;24.44;43.80
12536;BME280;6334;48.696;2.114;2023-06-26T09:20:54;100449.89;;;23.59;45.79
12536;BME280;6334;48.696;2.114;2023-06-26T09:23:24;100442.08;;;23.68;44.69
12536;BME280;6334;48.696;2.114;2023-06-26T09:25:54;100437.89;;;23.98;41.88
12536;BME280;6334;48.696;2.114;2023-06-26T09:28:25;100437.60;;;24.43;43.76
12536;BME280;6334;48.696;2.114;2023-06-26T09:30:54;100438.96;;;23.81;43.68
12536;BME280;6334;48.696;2.114;2023-06-26T09:33:24;100436.77;;;24.31;43.19
12536;BME280;6334;48.696;2.114;2023-06-26T09:35:55;100432.06;;;23.75;45.03
12536;BME280;6334;48.696;2.114;2023-06-26T09:38:25;100440.74;;;23.07;44.52
12536;BME280;6334;48.696;2.114;2023-06-26T09:40:55;100449.42;;;23.23;44.19
12536;BME280;6334;48.696;2.114;2023-06-26T09:43:25;100444.94;;;23.87;40.67
12536;BME280;6334;48.696;2.114;2023-06-26T09:45:56;100437.06;;;24.21;39.65
12536;BME280;6334;48.696;2.114;2023-06-26T09:48:26;100438.59;;;24.47;40.74
12536;BME280;6334;48.696;2.114;2023-06-26T09:50:55;100446.67;;;24.13;43.52
12536;BME280;6334;48.696;2.114;2023-06-26T09:53:25;100448.80;;;23.35;42.13
12536;BME280;6334;48.696;2.114;2023-06-26T09:55:55;100458.88;;;23.42;44.49
12536;BME280;6334;48.696;2.114;2023-06-26T09:58:26;100460.91;;;23.40;44.25
12536;BME280;6334;48.696;2.114;2023-06-26T10:00:55;100463.89;;;23.93;41.67
12536;BME280;6334;48.696;2.114;2023-06-26T10:03:25;100461.85;;;24.04;41.10
12536;BME280;6334;48.696;2.114;2023-06-26T10:08:19;100461.26;;;24.18;40.97
12536;BME280;6334;48.696;2.114;2023-06-26T10:10:48;100459.62;;;23.81;41.86
12536;BME280;6334;48.696;2.114;2023-06-26T10:13:34;100471.33;;;24.35;41.87
12536;BME280;6334;48.696;2.114;2023-06-26T10:16:04;100478.03;;;24.09;40.26
12536;BME280;6334;48.696;2.114;2023-06-26T10:18:33;100477.20;;;24.43;40.06
12536;BME280;6334;48.696;2.114;2023-06-26T10:21:05;100459.81;;;24.52;38.86
12536;BME280;6334;48.696;2.114;2023-06-26T10:23:34;100463.95;;;24.94;38.68
12536;BME280;6334;48.696;2.114;2023-06-26T10:26:05;100465.06;;;24.86;39.29
12536;BME280;6334;48.696;2.114;2023-06-26T10:28:35;100458.61;;;24.04;40.14
12536;BME280;6334;48.696;2.114;2023-06-26T10:31:05;100444.14;;;24.47;40.35
12536;BME280;6334;48.696;2.114;2023-06-26T10:33:34;100468.00;;;24.46;42.10
12536;BME280;6334;48.696;2.114;2023-06-26T10:36:20;100472.11;;;24.56;41.00
12536;BME280;6334;48.696;2.114;2023-06-26T10:38:49;100473.56;;;24.52;40.22
12536;BME280;6334;48.696;2.114;2023-06-26T10:41:22;100474.31;;;24.79;39.63
12536;BME280;6334;48.696;2.114;2023-06-26T10:46:33;100461.73;;;25.06;37.59
12536;BME280;6334;48.696;2.114;2023-06-26T10:49:02;100463.16;;;25.14;38.71
12536;BME280;6334;48.696;2.114;2023-06-26T10:51:32;100465.34;;;25.16;39.75
12536;BME280;6334;48.696;2.114;2023-06-26T10:54:02;100457.37;;;25.29;39.09
12536;BME280;6334;48.696;2.114;2023-06-26T10:56:45;100464.99;;;25.94;37.56
12536;BME280;6334;48.696;2.114;2023-06-26T10:59:15;100464.80;;;24.58;36.34
12536;BME280;6334;48.696;2.114;2023-06-26T11:01:45;100460.08;;;25.56;34.57
12536;BME280;6334;48.696;2.114;2023-06-26T11:04:14;100459.06;;;24.76;36.60
12536;BME280;6334;48.696;2.114;2023-06-26T11:06:45;100458.75;;;24.46;36.32
12536;BME280;6334;48.696;2.114;2023-06-26T11:09:17;100449.62;;;24.92;36.81
12536;BME280;6334;48.696;2.114;2023-06-26T11:14:25;100466.44;;;25.31;37.11
12536;BME280;6334;48.696;2.114;2023-06-26T11:16:57;100461.34;;;24.99;37.26
12536;BME280;6334;48.696;2.114;2023-06-26T11:19:28;100465.91;;;25.58;35.42
12536;BME280;6334;48.696;2.114;2023-06-26T11:22:04;100467.39;;;26.25;36.27
12536;BME280;6334;48.696;2.114;2023-06-26T11:24:34;100466.19;;;25.46;36.12
12536;BME280;6334;48.696;2.114;2023-06-26T11:27:06;100470.88;;;24.67;37.67
12536;BME280;6334;48.696;2.114;2023-06-26T11:29:36;100472.71;;;24.81;36.85
12536;BME280;6334;48.696;2.114;2023-06-26T11:32:06;100476.55;;;24.73;37.13
12536;BME280;6334;48.696;2.114;2023-06-26T11:34:36;100467.52;;;25.53;36.18
12536;BME280;6334;48.696;2.114;2023-06-26T11:37:07;100450.93;;;25.26;35.57
12536;BME280;6334;48.696;2.114;2023-06-26T11:39:37;100458.42;;;25.26;37.14
12536;BME280;6334;48.696;2.114;2023-06-26T11:42:07;100469.12;;;25.10;38.01
12536;BME280;6334;48.696;2.114;2023-06-26T11:44:40;100470.79;;;24.92;36.92
12536;BME280;6334;48.696;2.114;2023-06-26T11:47:13;100457.36;;;25.43;36.81
12536;BME280;6334;48.696;2.114;2023-06-26T11:49:46;100468.71;;;25.39;37.25
12536;BME280;6334;48.696;2.114;2023-06-26T11:52:15;100471.09;;;25.92;36.36
12536;BME280;6334;48.696;2.114;2023-06-26T11:54:45;100472.31;;;25.72;36.98
12536;BME280;6334;48.696;2.114;2023-06-26T11:57:15;100469.34;;;25.80;36.57
12536;BME280;6334;48.696;2.114;2023-06-26T11:59:45;100471.63;;;25.97;34.74
12536;BME280;6334;48.696;2.114;2023-06-26T12:02:15;100470.34;;;25.41;35.12
12536;BME280;6334;48.696;2.114;2023-06-26T12:04:44;100399.64;;;26.17;34.37
12536;BME280;6334;48.696;2.114;2023-06-26T12:07:14;100455.56;;;25.93;34.73
12536;BME280;6334;48.696;2.114;2023-06-26T12:09:45;100452.13;;;25.80;35.12
12536;BME280;6334;48.696;2.114;2023-06-26T12:12:14;100455.14;;;25.61;36.31
12536;BME280;6334;48.696;2.114;2023-06-26T12:14:43;100463.70;;;25.50;36.19
12536;BME280;6334;48.696;2.114;2023-06-26T12:17:15;100460.31;;;25.88;34.62
12536;BME280;6334;48.696;2.114;2023-06-26T12:19:47;100462.05;;;26.15;35.45
12536;BME280;6334;48.696;2.114;2023-06-26T12:22:17;100462.03;;;25.71;35.40
12536;BME280;6334;48.696;2.114;2023-06-26T12:24:47;100460.85;;;25.63;33.57
12536;BME280;6334;48.696;2.114;2023-06-26T12:27:17;100457.44;;;24.88;33.66
12536;BME280;6334;48.696;2.114;2023-06-26T12:29:53;100452.50;;;25.22;35.83
12536;BME280;6334;48.696;2.114;2023-06-26T12:32:21;100452.41;;;25.69;36.05
12536;BME280;6334;48.696;2.114;2023-06-26T12:34:50;100453.28;;;25.18;35.79
12536;BME280;6334;48.696;2.114;2023-06-26T12:37:20;100456.89;;;26.17;35.22
12536;BME280;6334;48.696;2.114;2023-06-26T12:39:53;100466.23;;;25.44;34.79
12536;BME280;6334;48.696;2.114;2023-06-26T12:42:22;100462.16;;;25.25;34.33
12536;BME280;6334;48.696;2.114;2023-06-26T12:44:52;100452.88;;;25.81;34.31
12536;BME280;6334;48.696;2.114;2023-06-26T12:47:25;100454.67;;;25.87;33.79
12536;BME280;6334;48.696;2.114;2023-06-26T12:49:51;100447.77;;;25.61;33.65
12536;BME280;6334;48.696;2.114;2023-06-26T12:52:21;100449.08;;;25.84;34.68
12536;BME280;6334;48.696;2.114;2023-06-26T12:54:53;100412.27;;;25.15;34.13
12536;BME280;6334;48.696;2.114;2023-06-26T12:57:24;100439.42;;;26.14;33.24
12536;BME280;6334;48.696;2.114;2023-06-26T12:59:54;100450.59;;;25.64;35.18
12536;BME280;6334;48.696;2.114;2023-06-26T13:02:23;100447.14;;;26.13;34.39
12536;BME280;6334;48.696;2.114;2023-06-26T13:04:54;100460.52;;;25.45;35.27
12536;BME280;6334;48.696;2.114;2023-06-26T13:07:25;100454.02;;;25.39;34.47
12536;BME280;6334;48.696;2.114;2023-06-26T13:09:54;100442.64;;;26.14;34.69
12536;BME280;6334;48.696;2.114;2023-06-26T13:12:24;100448.41;;;25.22;36.25
12536;BME280;6334;48.696;2.114;2023-06-26T13:14:56;100449.04;;;25.15;34.57
12536;BME280;6334;48.696;2.114;2023-06-26T13:17:27;100459.72;;;25.51;34.05
12536;BME280;6334;48.696;2.114;2023-06-26T13:19:57;100462.73;;;25.45;34.26
12536;BME280;6334;48.696;2.114;2023-06-26T13:22:28;100453.08;;;25.58;34.16
12536;BME280;6334;48.696;2.114;2023-06-26T13:24:58;100451.80;;;25.66;34.53
12536;BME280;6334;48.696;2.114;2023-06-26T13:27:29;100456.10;;;25.89;34.67